Time,TemperatureF,DewpointF,PressureIn,WindDirection,WindDirectionDegrees,WindSpeedMPH,WindSpeedGustMPH,Humidity,HourlyPrecipIn,Conditions,Clouds,dailyrainin,SoftwareType,DateUTC
2013-07-03 00:06:00,74.4,73.0,30.07,East,82,7.0,9.0,94,0.00,,,0.27,weatherlink.com 1.10,2013-07-03 04:06:00,
2013-07-03 00:21:00,74.5,73.0,30.07,ENE,63,11.0,12.0,94,0.00,,,0.00,weatherlink.com 1.10,2013-07-03 04:21:00,
2013-07-03 00:36:00,74.7,73.0,30.07,ENE,62,6.0,12.0,94,0.00,,,0.00,weatherlink.com 1.10,2013-07-03 04:36:00,
2013-07-03 00:51:00,74.8,73.0,30.06,East,96,2.0,8.0,94,0.00,,,0.00,weatherlink.com 1.10,2013-07-03 04:51:00,
2013-07-03 01:06:00,75.0,74.0,30.06,ENE,72,3.0,8.0,95,0.00,,,0.00,weatherlink.com 1.10,2013-07-03 05:06:00,
2013-07-03 01:21:00,75.1,74.0,30.06,ENE,61,7.0,10.0,95,0.00,,,0.00,weatherlink.com 1.10,2013-07-03 05:21:00,
2013-07-03 01:51:00,75.0,74.0,30.06,ENE,64,3.0,7.0,95,0.00,,,0.00,weatherlink.com 1.10,2013-07-03 05:51:00,
2013-07-03 02:36:00,75.0,74.0,30.06,ENE,70,3.0,7.0,95,0.00,,,0.00,weatherlink.com 1.10,2013-07-03 06:36:00,
2013-07-03 02:51:00,74.9,73.0,30.06,ENE,69,2.0,7.0,95,0.00,,,0.00,weatherlink.com 1.10,2013-07-03 06:51:00,
2013-07-03 03:21:00,74.9,73.0,30.05,ENE,69,3.0,4.0,95,0.00,,,0.00,weatherlink.com 1.10,2013-07-03 07:21:00,
2013-07-03 03:36:00,74.9,73.0,30.04,ENE,69,3.0,5.0,95,0.00,,,0.00,weatherlink.com 1.10,2013-07-03 07:36:00,
2013-07-03 03:51:00,74.8,73.0,30.05,ENE,69,0.0,4.0,95,0.00,,,0.00,weatherlink.com 1.10,2013-07-03 07:51:00,
2013-07-03 04:21:00,75.0,74.0,30.05,ENE,70,0.0,4.0,95,0.00,,,0.00,weatherlink.com 1.10,2013-07-03 08:21:00,
2013-07-03 04:36:00,75.0,74.0,30.05,ENE,71,1.0,4.0,95,0.00,,,0.00,weatherlink.com 1.10,2013-07-03 08:36:00,
2013-07-03 04:51:00,74.9,73.0,30.05,ENE,70,2.0,4.0,95,0.00,,,0.00,weatherlink.com 1.10,2013-07-03 08:51:00,
2013-07-03 05:06:00,75.0,74.0,30.05,ENE,71,2.0,4.0,95,0.00,,,0.00,weatherlink.com 1.10,2013-07-03 09:06:00,
2013-07-03 05:21:00,75.1,74.0,30.06,ENE,71,3.0,3.0,95,0.00,,,0.00,weatherlink.com 1.10,2013-07-03 09:21:00,
2013-07-03 05:36:00,75.1,74.0,30.06,ENE,70,2.0,4.0,95,0.00,,,0.00,weatherlink.com 1.10,2013-07-03 09:36:00,
2013-07-03 05:51:00,75.3,74.0,30.05,ENE,70,3.0,6.0,95,0.00,,,0.00,weatherlink.com 1.10,2013-07-03 09:51:00,
2013-07-03 06:06:00,75.3,74.0,30.05,ENE,70,3.0,7.0,95,0.00,,,0.00,weatherlink.com 1.10,2013-07-03 10:06:00,
2013-07-03 06:21:00,75.3,74.0,30.06,ENE,70,4.0,6.0,95,0.00,,,0.00,weatherlink.com 1.10,2013-07-03 10:21:00,
2013-07-03 06:36:00,75.3,74.0,30.06,ENE,70,3.0,5.0,95,0.00,,,0.00,weatherlink.com 1.10,2013-07-03 10:36:00,
2013-07-03 06:51:00,75.4,74.0,30.06,ENE,66,3.0,9.0,95,0.00,,,0.00,weatherlink.com 1.10,2013-07-03 10:51:00,
2013-07-03 07:06:00,75.6,74.0,30.06,ENE,64,4.0,7.0,95,0.00,,,0.00,weatherlink.com 1.10,2013-07-03 11:06:00,
2013-07-03 07:21:00,75.7,74.0,30.07,ENE,74,2.0,6.0,95,0.00,,,0.00,weatherlink.com 1.10,2013-07-03 11:21:00,
2013-07-03 07:36:00,75.8,74.0,30.07,ENE,72,2.0,7.0,95,0.00,,,0.00,weatherlink.com 1.10,2013-07-03 11:36:00,
2013-07-03 07:51:00,76.0,75.0,30.07,ENE,70,4.0,7.0,95,0.00,,,0.00,weatherlink.com 1.10,2013-07-03 11:51:00,
2013-07-03 08:06:00,76.2,75.0,30.07,ENE,74,0.0,6.0,95,0.00,,,0.00,weatherlink.com 1.10,2013-07-03 12:06:00,
2013-07-03 08:22:00,76.6,75.0,30.07,ENE,75,2.0,7.0,95,0.00,,,0.00,weatherlink.com 1.10,2013-07-03 12:22:00,
2013-07-03 08:36:00,77.0,76.0,30.08,East,81,1.0,10.0,95,0.00,,,0.00,weatherlink.com 1.10,2013-07-03 12:36:00,
2013-07-03 09:07:00,78.0,76.0,30.09,East,83,3.0,8.0,94,0.00,,,0.00,weatherlink.com 1.10,2013-07-03 13:07:00,
2013-07-03 09:22:00,78.5,77.0,30.09,ENE,77,6.0,12.0,94,0.00,,,0.00,weatherlink.com 1.10,2013-07-03 13:22:00,
2013-07-03 09:37:00,78.9,77.0,30.09,ENE,77,1.0,11.0,93,0.00,,,0.00,weatherlink.com 1.10,2013-07-03 13:37:00,
2013-07-03 09:52:00,79.6,78.0,30.09,ENE,62,5.0,11.0,93,0.00,,,0.00,weatherlink.com 1.10,2013-07-03 13:52:00,
2013-07-03 10:37:00,81.5,78.0,30.09,SSE,164,6.0,14.0,90,0.00,,,0.00,weatherlink.com 1.10,2013-07-03 14:37:00,
2013-07-03 10:52:00,82.2,79.0,30.09,ESE,116,5.0,15.0,89,0.00,,,0.00,weatherlink.com 1.10,2013-07-03 14:52:00,
2013-07-03 11:07:00,83.1,79.0,30.09,East,95,3.0,16.0,87,0.00,,,0.00,weatherlink.com 1.10,2013-07-03 15:07:00,
2013-07-03 11:22:00,83.9,79.0,30.09,SE,138,7.0,12.0,86,0.00,,,0.00,weatherlink.com 1.10,2013-07-03 15:22:00,
2013-07-03 11:37:00,84.6,79.0,30.09,ESE,107,5.0,15.0,83,0.00,,,0.00,weatherlink.com 1.10,2013-07-03 15:37:00,
2013-07-03 11:52:00,85.7,79.0,30.09,SE,143,11.0,18.0,80,0.00,,,0.00,weatherlink.com 1.10,2013-07-03 15:52:00,
2013-07-03 12:07:00,85.9,78.0,30.09,SSE,160,19.0,20.0,78,0.00,,,0.00,weatherlink.com 1.10,2013-07-03 16:07:00,
2013-07-03 12:37:00,87.4,79.0,30.08,SSE,157,17.0,18.0,75,0.00,,,0.00,weatherlink.com 1.10,2013-07-03 16:37:00,
2013-07-03 12:52:00,87.5,77.0,30.07,East,90,8.0,23.0,72,0.00,,,0.00,weatherlink.com 1.10,2013-07-03 16:52:00,
2013-07-03 13:07:00,86.5,78.0,30.08,NE,50,8.0,14.0,75,0.00,,,0.00,weatherlink.com 1.10,2013-07-03 17:07:00,
2013-07-03 13:22:00,84.7,77.0,30.07,East,91,1.0,10.0,77,0.00,,,0.00,weatherlink.com 1.10,2013-07-03 17:22:00,
2013-07-03 13:37:00,85.8,79.0,30.07,ENE,61,3.0,8.0,79,0.00,,,0.00,weatherlink.com 1.10,2013-07-03 17:37:00,
2013-07-03 13:52:00,85.7,79.0,30.07,East,95,6.0,10.0,80,0.00,,,0.00,weatherlink.com 1.10,2013-07-03 17:52:00,
2013-07-03 14:07:00,84.3,79.0,30.07,SE,130,7.0,12.0,83,0.00,,,0.00,weatherlink.com 1.10,2013-07-03 18:07:00,
2013-07-03 14:22:00,83.8,78.0,30.08,SE,129,8.0,13.0,82,0.00,,,0.00,weatherlink.com 1.10,2013-07-03 18:22:00,
2013-07-03 14:37:00,83.7,78.0,30.07,ESE,111,2.0,10.0,83,0.00,,,0.00,weatherlink.com 1.10,2013-07-03 18:37:00,
2013-07-03 14:52:00,82.5,77.0,30.08,SE,141,9.0,18.0,82,0.01,,,0.01,weatherlink.com 1.10,2013-07-03 18:52:00,
2013-07-03 15:07:00,81.2,76.0,30.08,ESE,122,7.0,15.0,83,0.03,,,0.03,weatherlink.com 1.10,2013-07-03 19:07:00,
2013-07-03 15:22:00,79.7,75.0,30.07,East,79,1.0,11.0,85,0.03,,,0.03,weatherlink.com 1.10,2013-07-03 19:22:00,
2013-07-03 15:37:00,79.2,75.0,30.07,East,82,2.0,8.0,87,0.03,,,0.03,weatherlink.com 1.10,2013-07-03 19:37:00,
2013-07-03 15:52:00,79.3,76.0,30.06,East,85,3.0,7.0,88,0.04,,,0.05,weatherlink.com 1.10,2013-07-03 19:52:00,
2013-07-03 16:07:00,79.4,76.0,30.07,East,85,0.0,6.0,90,0.03,,,0.06,weatherlink.com 1.10,2013-07-03 20:07:00,
2013-07-03 16:22:00,79.7,77.0,30.05,ENE,62,5.0,7.0,90,0.03,,,0.06,weatherlink.com 1.10,2013-07-03 20:22:00,
2013-07-03 16:37:00,80.0,77.0,30.06,ENE,62,4.0,6.0,90,0.02,,,0.06,weatherlink.com 1.10,2013-07-03 20:37:00,
2013-07-03 16:52:00,80.2,77.0,30.06,ENE,66,2.0,5.0,90,0.01,,,0.06,weatherlink.com 1.10,2013-07-03 20:52:00,
2013-07-03 17:07:00,80.3,77.0,30.07,ESE,107,2.0,6.0,90,0.00,,,0.06,weatherlink.com 1.10,2013-07-03 21:07:00,
2013-07-03 17:22:00,80.2,77.0,30.07,SE,130,1.0,7.0,90,0.00,,,0.06,weatherlink.com 1.10,2013-07-03 21:22:00,
2013-07-03 17:53:00,80.6,78.0,30.07,SE,125,5.0,6.0,90,0.00,,,0.06,weatherlink.com 1.10,2013-07-03 21:53:00,
2013-07-03 18:08:00,78.5,75.0,30.08,SSW,192,15.0,23.0,88,0.00,,,0.06,weatherlink.com 1.10,2013-07-03 22:08:00,
2013-07-03 19:08:00,76.4,72.0,30.08,SSW,195,16.0,27.0,86,0.00,,,0.06,weatherlink.com 1.10,2013-07-03 23:08:00,
2013-07-03 19:23:00,76.3,72.0,30.09,SSE,166,9.0,18.0,86,0.00,,,0.06,weatherlink.com 1.10,2013-07-03 23:23:00,
2013-07-03 20:08:00,76.6,73.0,30.08,SE,135,3.0,5.0,87,0.00,,,0.06,weatherlink.com 1.10,2013-07-04 00:08:00,
2013-07-03 20:23:00,76.6,73.0,30.08,NE,56,5.0,7.0,87,0.00,,,0.06,weatherlink.com 1.10,2013-07-04 00:23:00,
2013-07-03 21:08:00,76.6,73.0,30.10,ESE,116,5.0,8.0,88,0.00,,,0.06,weatherlink.com 1.10,2013-07-04 01:08:00,
2013-07-03 21:23:00,77.0,73.0,30.11,ESE,110,8.0,10.0,88,0.00,,,0.06,weatherlink.com 1.10,2013-07-04 01:23:00,
2013-07-03 21:53:00,76.3,73.0,30.11,ESE,115,7.0,14.0,89,0.03,,,0.09,weatherlink.com 1.10,2013-07-04 01:53:00,
2013-07-03 22:23:00,75.2,72.0,30.11,East,86,5.0,13.0,90,0.07,,,0.13,weatherlink.com 1.10,2013-07-04 02:23:00,
2013-07-03 22:38:00,75.0,72.0,30.11,NE,48,6.0,9.0,91,0.04,,,0.13,weatherlink.com 1.10,2013-07-04 02:38:00,
2013-07-03 22:53:00,74.9,73.0,30.12,East,89,6.0,7.0,92,0.04,,,0.13,weatherlink.com 1.10,2013-07-04 02:53:00,
2013-07-03 23:08:00,74.8,72.0,30.12,ESE,118,0.0,9.0,92,0.02,,,0.13,weatherlink.com 1.10,2013-07-04 03:08:00,
2013-07-03 23:23:00,74.6,72.0,30.12,ESE,114,3.0,6.0,92,0.00,,,0.13,weatherlink.com 1.10,2013-07-04 03:23:00,
2013-07-03 23:53:00,74.7,72.0,30.12,East,87,6.0,6.0,92,0.00,,,0.13,weatherlink.com 1.10,2013-07-04 03:53:00,